sensor_id;sensor_type;location;lat;lon;timestamp;P1;durP1;ratioP1;P2;durP2;ratioP2
63801;SDS011;49949;43.060;25.624;2022-07-23T00:01:14;9.52;;;4.10;;
63801;SDS011;49949;43.060;25.624;2022-07-23T00:03:40;11.48;;;4.03;;
63801;SDS011;49949;43.060;25.624;2022-07-23T00:06:05;10.02;;;3.88;;
63801;SDS011;49949;43.060;25.624;2022-07-23T00:08:31;11.52;;;3.75;;
63801;SDS011;49949;43.060;25.624;2022-07-23T00:10:57;9.10;;;3.50;;
63801;SDS011;49949;43.060;25.624;2022-07-23T00:13:23;15.10;;;3.65;;
63801;SDS011;49949;43.060;25.624;2022-07-23T00:15:48;13.30;;;3.53;;
63801;SDS011;49949;43.060;25.624;2022-07-23T00:18:14;11.68;;;3.50;;
63801;SDS011;49949;43.060;25.624;2022-07-23T00:20:40;16.42;;;5.03;;
63801;SDS011;49949;43.060;25.624;2022-07-23T00:23:05;11.80;;;3.75;;
63801;SDS011;49949;43.060;25.624;2022-07-23T00:25:31;13.73;;;3.70;;
63801;SDS011;49949;43.060;25.624;2022-07-23T00:27:57;14.23;;;3.30;;
63801;SDS011;49949;43.060;25.624;2022-07-23T00:30:24;10.68;;;2.88;;
63801;SDS011;49949;43.060;25.624;2022-07-23T00:32:51;9.48;;;3.05;;
63801;SDS011;49949;43.060;25.624;2022-07-23T00:35:21;8.00;;;3.05;;
63801;SDS011;49949;43.060;25.624;2022-07-23T00:37:51;12.52;;;3.80;;
63801;SDS011;49949;43.060;25.624;2022-07-23T00:40:17;7.50;;;3.08;;
63801;SDS011;49949;43.060;25.624;2022-07-23T00:42:43;11.90;;;3.50;;
63801;SDS011;49949;43.060;25.624;2022-07-23T00:45:09;8.82;;;3.17;;
63801;SDS011;49949;43.060;25.624;2022-07-23T00:47:35;6.22;;;3.55;;
63801;SDS011;49949;43.060;25.624;2022-07-23T00:50:02;13.27;;;3.40;;
63801;SDS011;49949;43.060;25.624;2022-07-23T00:52:29;15.98;;;3.65;;
63801;SDS011;49949;43.060;25.624;2022-07-23T00:54:56;8.38;;;3.22;;
63801;SDS011;49949;43.060;25.624;2022-07-23T00:57:22;13.85;;;3.20;;
63801;SDS011;49949;43.060;25.624;2022-07-23T00:59:48;9.45;;;3.58;;
63801;SDS011;49949;43.060;25.624;2022-07-23T01:02:14;12.27;;;3.90;;
63801;SDS011;49949;43.060;25.624;2022-07-23T01:04:39;11.27;;;4.00;;
63801;SDS011;49949;43.060;25.624;2022-07-23T01:07:05;9.18;;;3.15;;
63801;SDS011;49949;43.060;25.624;2022-07-23T01:09:31;9.57;;;3.60;;
63801;SDS011;49949;43.060;25.624;2022-07-23T01:11:57;10.55;;;3.90;;
63801;SDS011;49949;43.060;25.624;2022-07-23T01:14:24;6.13;;;3.63;;
63801;SDS011;49949;43.060;25.624;2022-07-23T01:16:50;12.10;;;3.58;;
63801;SDS011;49949;43.060;25.624;2022-07-23T01:19:16;10.18;;;3.80;;
63801;SDS011;49949;43.060;25.624;2022-07-23T01:21:43;21.70;;;4.43;;
63801;SDS011;49949;43.060;25.624;2022-07-23T01:24:11;19.83;;;4.35;;
63801;SDS011;49949;43.060;25.624;2022-07-23T01:26:37;14.85;;;4.53;;
63801;SDS011;49949;43.060;25.624;2022-07-23T01:29:04;14.38;;;3.80;;
63801;SDS011;49949;43.060;25.624;2022-07-23T01:31:30;12.10;;;3.97;;
63801;SDS011;49949;43.060;25.624;2022-07-23T01:33:56;11.05;;;3.63;;
63801;SDS011;49949;43.060;25.624;2022-07-23T01:36:22;16.40;;;4.10;;
63801;SDS011;49949;43.060;25.624;2022-07-23T01:38:48;19.83;;;4.30;;
63801;SDS011;49949;43.060;25.624;2022-07-23T01:41:14;23.63;;;4.25;;
63801;SDS011;49949;43.060;25.624;2022-07-23T01:43:41;25.65;;;4.25;;
63801;SDS011;49949;43.060;25.624;2022-07-23T01:46:06;14.75;;;4.00;;
63801;SDS011;49949;43.060;25.624;2022-07-23T01:48:32;9.38;;;3.42;;
63801;SDS011;49949;43.060;25.624;2022-07-23T01:50:58;15.68;;;4.15;;
63801;SDS011;49949;43.060;25.624;2022-07-23T01:53:23;32.67;;;4.53;;
63801;SDS011;49949;43.060;25.624;2022-07-23T01:55:49;26.17;;;5.55;;
63801;SDS011;49949;43.060;25.624;2022-07-23T01:58:15;18.00;;;5.93;;
63801;SDS011;49949;43.060;25.624;2022-07-23T02:00:41;25.38;;;5.63;;
63801;SDS011;49949;43.060;25.624;2022-07-23T02:03:07;17.20;;;6.20;;
63801;SDS011;49949;43.060;25.624;2022-07-23T02:05:32;15.23;;;4.78;;
63801;SDS011;49949;43.060;25.624;2022-07-23T02:07:59;24.63;;;4.78;;
63801;SDS011;49949;43.060;25.624;2022-07-23T02:10:25;19.33;;;5.45;;
63801;SDS011;49949;43.060;25.624;2022-07-23T02:12:51;16.27;;;5.15;;
63801;SDS011;49949;43.060;25.624;2022-07-23T02:15:17;23.65;;;5.75;;
63801;SDS011;49949;43.060;25.624;2022-07-23T02:17:43;20.48;;;5.72;;
63801;SDS011;49949;43.060;25.624;2022-07-23T02:20:09;11.77;;;5.57;;
63801;SDS011;49949;43.060;25.624;2022-07-23T02:22:36;11.27;;;5.25;;
63801;SDS011;49949;43.060;25.624;2022-07-23T02:25:02;27.30;;;5.95;;
63801;SDS011;49949;43.060;25.624;2022-07-23T02:27:29;16.45;;;5.40;;
63801;SDS011;49949;43.060;25.624;2022-07-23T02:29:55;17.85;;;5.30;;
63801;SDS011;49949;43.060;25.624;2022-07-23T02:32:20;14.48;;;4.85;;
63801;SDS011;49949;43.060;25.624;2022-07-23T02:34:46;24.67;;;5.90;;
63801;SDS011;49949;43.060;25.624;2022-07-23T02:37:13;12.90;;;5.72;;
63801;SDS011;49949;43.060;25.624;2022-07-23T02:39:39;17.45;;;5.60;;
63801;SDS011;49949;43.060;25.624;2022-07-23T02:42:05;26.83;;;5.45;;
63801;SDS011;49949;43.060;25.624;2022-07-23T02:44:31;12.77;;;4.82;;
63801;SDS011;49949;43.060;25.624;2022-07-23T02:46:56;18.30;;;5.50;;
63801;SDS011;49949;43.060;25.624;2022-07-23T02:49:22;20.27;;;4.72;;
63801;SDS011;49949;43.060;25.624;2022-07-23T02:51:48;25.02;;;5.93;;
63801;SDS011;49949;43.060;25.624;2022-07-23T02:54:14;14.38;;;4.93;;
63801;SDS011;49949;43.060;25.624;2022-07-23T02:56:39;16.13;;;4.88;;
63801;SDS011;49949;43.060;25.624;2022-07-23T02:59:05;10.60;;;4.93;;
63801;SDS011;49949;43.060;25.624;2022-07-23T03:01:31;16.58;;;6.13;;
63801;SDS011;49949;43.060;25.624;2022-07-23T03:03:56;27.88;;;6.50;;
63801;SDS011;49949;43.060;25.624;2022-07-23T03:06:22;19.63;;;6.38;;
63801;SDS011;49949;43.060;25.624;2022-07-23T03:08:48;31.17;;;6.85;;
63801;SDS011;49949;43.060;25.624;2022-07-23T03:11:14;17.92;;;5.97;;
63801;SDS011;49949;43.060;25.624;2022-07-23T03:13:39;22.55;;;7.95;;
63801;SDS011;49949;43.060;25.624;2022-07-23T03:16:06;11.73;;;6.40;;
63801;SDS011;49949;43.060;25.624;2022-07-23T03:18:32;42.83;;;7.15;;
63801;SDS011;49949;43.060;25.624;2022-07-23T03:20:58;43.38;;;6.95;;
63801;SDS011;49949;43.060;25.624;2022-07-23T03:23:24;26.67;;;8.60;;
63801;SDS011;49949;43.060;25.624;2022-07-23T03:25:50;27.70;;;6.68;;
63801;SDS011;49949;43.060;25.624;2022-07-23T03:28:16;25.38;;;6.30;;
63801;SDS011;49949;43.060;25.624;2022-07-23T03:30:43;30.58;;;6.47;;
63801;SDS011;49949;43.060;25.624;2022-07-23T03:33:15;23.45;;;7.80;;
63801;SDS011;49949;43.060;25.624;2022-07-23T03:35:43;32.38;;;7.60;;
63801;SDS011;49949;43.060;25.624;2022-07-23T03:38:09;35.95;;;7.93;;
63801;SDS011;49949;43.060;25.624;2022-07-23T03:40:35;21.33;;;7.13;;
63801;SDS011;49949;43.060;25.624;2022-07-23T03:43:01;23.50;;;6.03;;
63801;SDS011;49949;43.060;25.624;2022-07-23T03:45:26;26.58;;;6.72;;
63801;SDS011;49949;43.060;25.624;2022-07-23T03:47:52;57.55;;;9.48;;
63801;SDS011;49949;43.060;25.624;2022-07-23T03:50:18;28.00;;;7.68;;
63801;SDS011;49949;43.060;25.624;2022-07-23T03:52:44;24.83;;;7.43;;
63801;SDS011;49949;43.060;25.624;2022-07-23T03:55:10;25.35;;;6.80;;
63801;SDS011;49949;43.060;25.624;2022-07-23T03:57:36;21.85;;;6.15;;
63801;SDS011;49949;43.060;25.624;2022-07-23T04:00:03;21.73;;;6.57;;
63801;SDS011;49949;43.060;25.624;2022-07-23T04:02:30;29.30;;;6.40;;
63801;SDS011;49949;43.060;25.624;2022-07-23T04:04:56;17.48;;;5.75;;
63801;SDS011;49949;43.060;25.624;2022-07-23T04:07:22;34.08;;;6.90;;
63801;SDS011;49949;43.060;25.624;2022-07-23T04:09:48;25.10;;;6.40;;
63801;SDS011;49949;43.060;25.624;2022-07-23T04:12:14;12.95;;;5.05;;
63801;SDS011;49949;43.060;25.624;2022-07-23T04:14:40;16.60;;;5.43;;
63801;SDS011;49949;43.060;25.624;2022-07-23T04:17:05;15.38;;;5.18;;
63801;SDS011;49949;43.060;25.624;2022-07-23T04:19:31;30.25;;;5.43;;
63801;SDS011;49949;43.060;25.624;2022-07-23T04:21:57;28.48;;;4.95;;
63801;SDS011;49949;43.060;25.624;2022-07-23T04:24:23;18.17;;;4.35;;
63801;SDS011;49949;43.060;25.624;2022-07-23T04:26:49;31.17;;;7.15;;
63801;SDS011;49949;43.060;25.624;2022-07-23T04:29:14;30.17;;;5.97;;
63801;SDS011;49949;43.060;25.624;2022-07-23T04:31:40;30.60;;;5.72;;
63801;SDS011;49949;43.060;25.624;2022-07-23T04:34:06;75.80;;;6.63;;
63801;SDS011;49949;43.060;25.624;2022-07-23T04:36:32;24.13;;;5.10;;
63801;SDS011;49949;43.060;25.624;2022-07-23T04:38:57;40.17;;;6.93;;
63801;SDS011;49949;43.060;25.624;2022-07-23T04:41:23;24.80;;;5.28;;
63801;SDS011;49949;43.060;25.624;2022-07-23T04:43:49;23.20;;;5.38;;
63801;SDS011;49949;43.060;25.624;2022-07-23T04:46:14;38.90;;;6.65;;
63801;SDS011;49949;43.060;25.624;2022-07-23T04:48:40;57.78;;;11.27;;
63801;SDS011;49949;43.060;25.624;2022-07-23T04:51:07;31.58;;;7.20;;
63801;SDS011;49949;43.060;25.624;2022-07-23T04:53:33;27.85;;;6.75;;
63801;SDS011;49949;43.060;25.624;2022-07-23T04:55:58;47.45;;;13.30;;
63801;SDS011;49949;43.060;25.624;2022-07-23T04:58:24;38.17;;;11.48;;
63801;SDS011;49949;43.060;25.624;2022-07-23T05:00:50;40.53;;;11.95;;
63801;SDS011;49949;43.060;25.624;2022-07-23T05:03:16;50.25;;;12.95;;
63801;SDS011;49949;43.060;25.624;2022-07-23T05:05:42;54.03;;;13.77;;
63801;SDS011;49949;43.060;25.624;2022-07-23T05:08:08;58.03;;;15.23;;
63801;SDS011;49949;43.060;25.624;2022-07-23T05:10:34;50.10;;;13.93;;
63801;SDS011;49949;43.060;25.624;2022-07-23T05:12:59;54.95;;;14.77;;
63801;SDS011;49949;43.060;25.624;2022-07-23T05:15:25;64.68;;;14.80;;
63801;SDS011;49949;43.060;25.624;2022-07-23T05:17:52;57.70;;;15.80;;
63801;SDS011;49949;43.060;25.624;2022-07-23T05:20:17;48.58;;;17.48;;
63801;SDS011;49949;43.060;25.624;2022-07-23T05:22:43;45.67;;;17.85;;
63801;SDS011;49949;43.060;25.624;2022-07-23T05:25:09;36.15;;;17.27;;
63801;SDS011;49949;43.060;25.624;2022-07-23T05:27:35;39.92;;;15.82;;
63801;SDS011;49949;43.060;25.624;2022-07-23T05:30:00;39.67;;;16.63;;
63801;SDS011;49949;43.060;25.624;2022-07-23T05:32:26;43.03;;;15.82;;
63801;SDS011;49949;43.060;25.624;2022-07-23T05:34:52;36.97;;;13.32;;
63801;SDS011;49949;43.060;25.624;2022-07-23T05:37:18;27.13;;;12.10;;
63801;SDS011;49949;43.060;25.624;2022-07-23T05:39:43;60.65;;;22.63;;
63801;SDS011;49949;43.060;25.624;2022-07-23T05:42:09;39.08;;;18.33;;
63801;SDS011;49949;43.060;25.624;2022-07-23T05:44:35;41.10;;;18.25;;
63801;SDS011;49949;43.060;25.624;2022-07-23T05:47:01;24.80;;;10.43;;
63801;SDS011;49949;43.060;25.624;2022-07-23T05:49:26;28.65;;;10.52;;
63801;SDS011;49949;43.060;25.624;2022-07-23T05:51:52;43.38;;;12.02;;
63801;SDS011;49949;43.060;25.624;2022-07-23T05:54:18;20.13;;;8.40;;
63801;SDS011;49949;43.060;25.624;2022-07-23T05:56:44;29.73;;;11.02;;
63801;SDS011;49949;43.060;25.624;2022-07-23T05:59:09;36.72;;;14.50;;
63801;SDS011;49949;43.060;25.624;2022-07-23T06:01:37;29.98;;;12.88;;
63801;SDS011;49949;43.060;25.624;2022-07-23T06:04:02;36.63;;;14.13;;
63801;SDS011;49949;43.060;25.624;2022-07-23T06:06:28;33.92;;;11.60;;
63801;SDS011;49949;43.060;25.624;2022-07-23T06:08:54;28.88;;;13.35;;
63801;SDS011;49949;43.060;25.624;2022-07-23T06:11:20;31.65;;;11.63;;
63801;SDS011;49949;43.060;25.624;2022-07-23T06:13:45;36.90;;;12.98;;
63801;SDS011;49949;43.060;25.624;2022-07-23T06:16:11;38.90;;;16.45;;
63801;SDS011;49949;43.060;25.624;2022-07-23T06:18:37;32.05;;;15.77;;
63801;SDS011;49949;43.060;25.624;2022-07-23T06:21:02;33.65;;;15.85;;
63801;SDS011;49949;43.060;25.624;2022-07-23T06:23:28;37.78;;;15.13;;
63801;SDS011;49949;43.060;25.624;2022-07-23T06:25:54;44.90;;;15.38;;
63801;SDS011;49949;43.060;25.624;2022-07-23T06:28:20;38.28;;;17.65;;
63801;SDS011;49949;43.060;25.624;2022-07-23T06:30:45;54.55;;;22.50;;
63801;SDS011;49949;43.060;25.624;2022-07-23T06:33:11;36.83;;;21.67;;
63801;SDS011;49949;43.060;25.624;2022-07-23T06:35:37;43.83;;;18.45;;
63801;SDS011;49949;43.060;25.624;2022-07-23T06:38:03;45.88;;;22.63;;
63801;SDS011;49949;43.060;25.624;2022-07-23T06:40:28;46.40;;;22.52;;
63801;SDS011;49949;43.060;25.624;2022-07-23T06:42:54;46.13;;;19.38;;
63801;SDS011;49949;43.060;25.624;2022-07-23T06:45:20;42.40;;;20.23;;
63801;SDS011;49949;43.060;25.624;2022-07-23T06:47:46;27.48;;;15.38;;
63801;SDS011;49949;43.060;25.624;2022-07-23T06:50:11;37.80;;;19.17;;
63801;SDS011;49949;43.060;25.624;2022-07-23T06:52:37;34.95;;;15.00;;
63801;SDS011;49949;43.060;25.624;2022-07-23T06:55:03;16.92;;;6.53;;
63801;SDS011;49949;43.060;25.624;2022-07-23T06:57:29;27.83;;;11.35;;
63801;SDS011;49949;43.060;25.624;2022-07-23T06:59:55;32.22;;;11.15;;
63801;SDS011;49949;43.060;25.624;2022-07-23T07:02:20;23.92;;;6.97;;
63801;SDS011;49949;43.060;25.624;2022-07-23T07:04:46;18.30;;;7.05;;
63801;SDS011;49949;43.060;25.624;2022-07-23T07:07:12;16.13;;;6.97;;
63801;SDS011;49949;43.060;25.624;2022-07-23T07:09:38;18.90;;;6.95;;
63801;SDS011;49949;43.060;25.624;2022-07-23T07:12:04;16.20;;;6.80;;
63801;SDS011;49949;43.060;25.624;2022-07-23T07:14:30;36.88;;;7.35;;
63801;SDS011;49949;43.060;25.624;2022-07-23T07:16:55;17.00;;;6.47;;
63801;SDS011;49949;43.060;25.624;2022-07-23T07:19:21;19.77;;;6.78;;
63801;SDS011;49949;43.060;25.624;2022-07-23T07:21:47;12.15;;;5.60;;
63801;SDS011;49949;43.060;25.624;2022-07-23T07:24:13;15.05;;;6.03;;
63801;SDS011;49949;43.060;25.624;2022-07-23T07:26:38;15.40;;;4.05;;
63801;SDS011;49949;43.060;25.624;2022-07-23T07:29:04;8.90;;;4.90;;
63801;SDS011;49949;43.060;25.624;2022-07-23T07:31:30;10.70;;;5.55;;
63801;SDS011;49949;43.060;25.624;2022-07-23T07:33:56;21.00;;;8.40;;
63801;SDS011;49949;43.060;25.624;2022-07-23T07:36:23;27.90;;;11.15;;
63801;SDS011;49949;43.060;25.624;2022-07-23T07:38:48;27.67;;;11.93;;
63801;SDS011;49949;43.060;25.624;2022-07-23T07:41:14;46.20;;;13.30;;
63801;SDS011;49949;43.060;25.624;2022-07-23T07:43:40;28.52;;;12.93;;
63801;SDS011;49949;43.060;25.624;2022-07-23T07:46:06;42.33;;;11.52;;
63801;SDS011;49949;43.060;25.624;2022-07-23T07:48:35;35.55;;;12.18;;
63801;SDS011;49949;43.060;25.624;2022-07-23T07:51:04;27.25;;;10.23;;
63801;SDS011;49949;43.060;25.624;2022-07-23T07:53:30;21.60;;;9.43;;
63801;SDS011;49949;43.060;25.624;2022-07-23T07:55:56;22.80;;;7.80;;
63801;SDS011;49949;43.060;25.624;2022-07-23T07:58:21;15.80;;;7.03;;
63801;SDS011;49949;43.060;25.624;2022-07-23T08:00:47;40.03;;;8.07;;
63801;SDS011;49949;43.060;25.624;2022-07-23T08:03:13;13.20;;;6.60;;
63801;SDS011;49949;43.060;25.624;2022-07-23T08:05:39;17.67;;;7.88;;
63801;SDS011;49949;43.060;25.624;2022-07-23T08:08:04;17.63;;;4.72;;
63801;SDS011;49949;43.060;25.624;2022-07-23T08:10:30;14.50;;;3.97;;
63801;SDS011;49949;43.060;25.624;2022-07-23T08:12:57;13.13;;;4.00;;
63801;SDS011;49949;43.060;25.624;2022-07-23T08:15:25;32.90;;;4.82;;
63801;SDS011;49949;43.060;25.624;2022-07-23T08:17:52;16.38;;;3.72;;
63801;SDS011;49949;43.060;25.624;2022-07-23T08:20:19;21.83;;;5.20;;
63801;SDS011;49949;43.060;25.624;2022-07-23T08:22:50;28.17;;;4.30;;
63801;SDS011;49949;43.060;25.624;2022-07-23T08:25:27;21.80;;;4.20;;
63801;SDS011;49949;43.060;25.624;2022-07-23T08:27:58;13.07;;;3.22;;
63801;SDS011;49949;43.060;25.624;2022-07-23T08:30:25;11.85;;;3.85;;
63801;SDS011;49949;43.060;25.624;2022-07-23T08:32:58;14.07;;;5.68;;
63801;SDS011;49949;43.060;25.624;2022-07-23T08:35:27;13.95;;;5.35;;
63801;SDS011;49949;43.060;25.624;2022-07-23T08:37:58;15.00;;;5.40;;
63801;SDS011;49949;43.060;25.624;2022-07-23T08:40:26;13.50;;;6.20;;
63801;SDS011;49949;43.060;25.624;2022-07-23T08:42:55;14.63;;;4.70;;
63801;SDS011;49949;43.060;25.624;2022-07-23T08:45:21;9.50;;;4.95;;
63801;SDS011;49949;43.060;25.624;2022-07-23T08:47:49;8.90;;;4.68;;
63801;SDS011;49949;43.060;25.624;2022-07-23T08:50:15;11.00;;;6.22;;
63801;SDS011;49949;43.060;25.624;2022-07-23T08:52:41;18.15;;;5.88;;
63801;SDS011;49949;43.060;25.624;2022-07-23T08:55:08;12.95;;;5.45;;
63801;SDS011;49949;43.060;25.624;2022-07-23T08:57:34;16.27;;;4.70;;
63801;SDS011;49949;43.060;25.624;2022-07-23T09:00:00;13.13;;;4.00;;
63801;SDS011;49949;43.060;25.624;2022-07-23T09:02:26;28.58;;;4.82;;
63801;SDS011;49949;43.060;25.624;2022-07-23T09:04:52;9.93;;;4.00;;
63801;SDS011;49949;43.060;25.624;2022-07-23T09:07:17;11.18;;;4.40;;
63801;SDS011;49949;43.060;25.624;2022-07-23T09:09:43;6.55;;;3.30;;
63801;SDS011;49949;43.060;25.624;2022-07-23T09:12:10;288.80;;;19.10;;
63801;SDS011;49949;43.060;25.624;2022-07-23T09:14:37;12.40;;;3.40;;
63801;SDS011;49949;43.060;25.624;2022-07-23T09:19:37;6.75;;;3.00;;
63801;SDS011;49949;43.060;25.624;2022-07-23T09:22:22;8.25;;;3.38;;
63801;SDS011;49949;43.060;25.624;2022-07-23T09:30:24;19.95;;;3.85;;
63801;SDS011;49949;43.060;25.624;2022-07-23T09:33:13;10.32;;;3.35;;
63801;SDS011;49949;43.060;25.624;2022-07-23T09:35:46;6.30;;;3.13;;
63801;SDS011;49949;43.060;25.624;2022-07-23T09:38:14;6.13;;;3.30;;
63801;SDS011;49949;43.060;25.624;2022-07-23T09:40:41;113.95;;;11.75;;
63801;SDS011;49949;43.060;25.624;2022-07-23T09:43:07;8.15;;;3.22;;
63801;SDS011;49949;43.060;25.624;2022-07-23T09:45:32;5.20;;;3.33;;
63801;SDS011;49949;43.060;25.624;2022-07-23T09:48:14;16.38;;;2.80;;
63801;SDS011;49949;43.060;25.624;2022-07-23T09:50:42;11.75;;;3.67;;
63801;SDS011;49949;43.060;25.624;2022-07-23T09:53:09;11.38;;;4.60;;
63801;SDS011;49949;43.060;25.624;2022-07-23T09:55:48;11.82;;;4.28;;
63801;SDS011;49949;43.060;25.624;2022-07-23T09:58:14;13.20;;;3.85;;
63801;SDS011;49949;43.060;25.624;2022-07-23T10:00:40;9.70;;;3.20;;
63801;SDS011;49949;43.060;25.624;2022-07-23T10:03:07;6.47;;;2.97;;
63801;SDS011;49949;43.060;25.624;2022-07-23T10:05:35;10.95;;;3.00;;
63801;SDS011;49949;43.060;25.624;2022-07-23T10:08:02;9.63;;;3.08;;
63801;SDS011;49949;43.060;25.624;2022-07-23T10:10:28;5.82;;;3.00;;
63801;SDS011;49949;43.060;25.624;2022-07-23T10:12:56;9.13;;;2.85;;
63801;SDS011;49949;43.060;25.624;2022-07-23T10:15:34;12.15;;;3.05;;
63801;SDS011;49949;43.060;25.624;2022-07-23T10:18:00;9.18;;;3.72;;
63801;SDS011;49949;43.060;25.624;2022-07-23T10:20:26;14.93;;;4.13;;
63801;SDS011;49949;43.060;25.624;2022-07-23T10:25:37;12.30;;;2.97;;
63801;SDS011;49949;43.060;25.624;2022-07-23T10:31:08;8.23;;;3.35;;
63801;SDS011;49949;43.060;25.624;2022-07-23T10:34:13;11.57;;;4.00;;
63801;SDS011;49949;43.060;25.624;2022-07-23T10:36:59;18.42;;;3.92;;
63801;SDS011;49949;43.060;25.624;2022-07-23T10:39:36;13.30;;;3.58;;
63801;SDS011;49949;43.060;25.624;2022-07-23T10:42:09;15.45;;;3.83;;
63801;SDS011;49949;43.060;25.624;2022-07-23T10:44:44;10.02;;;3.40;;
63801;SDS011;49949;43.060;25.624;2022-07-23T10:47:12;10.48;;;3.35;;
63801;SDS011;49949;43.060;25.624;2022-07-23T10:57:57;6.47;;;3.13;;
63801;SDS011;49949;43.060;25.624;2022-07-23T11:00:23;12.15;;;3.45;;
63801;SDS011;49949;43.060;25.624;2022-07-23T11:02:52;9.25;;;4.07;;
63801;SDS011;49949;43.060;25.624;2022-07-23T11:05:19;10.60;;;3.47;;
63801;SDS011;49949;43.060;25.624;2022-07-23T11:34:32;9.95;;;3.60;;
63801;SDS011;49949;43.060;25.624;2022-07-23T11:37:04;11.85;;;3.40;;
63801;SDS011;49949;43.060;25.624;2022-07-23T11:39:32;19.77;;;4.30;;
63801;SDS011;49949;43.060;25.624;2022-07-23T11:41:59;17.02;;;3.88;;
63801;SDS011;49949;43.060;25.624;2022-07-23T11:44:27;15.27;;;3.60;;
63801;SDS011;49949;43.060;25.624;2022-07-23T11:47:02;8.80;;;3.17;;
63801;SDS011;49949;43.060;25.624;2022-07-23T11:49:32;18.90;;;3.70;;
63801;SDS011;49949;43.060;25.624;2022-07-23T11:52:04;16.00;;;3.95;;
63801;SDS011;49949;43.060;25.624;2022-07-23T11:54:35;21.48;;;3.75;;
63801;SDS011;49949;43.060;25.624;2022-07-23T11:57:11;8.75;;;3.92;;
63801;SDS011;49949;43.060;25.624;2022-07-23T11:59:36;11.68;;;3.78;;
63801;SDS011;49949;43.060;25.624;2022-07-23T12:02:05;10.93;;;3.80;;
63801;SDS011;49949;43.060;25.624;2022-07-23T12:04:39;11.75;;;3.38;;
63801;SDS011;49949;43.060;25.624;2022-07-23T12:09:58;17.13;;;3.55;;
63801;SDS011;49949;43.060;25.624;2022-07-23T12:12:30;7.75;;;3.28;;
63801;SDS011;49949;43.060;25.624;2022-07-23T12:15:01;14.60;;;4.00;;
63801;SDS011;49949;43.060;25.624;2022-07-23T12:17:31;10.32;;;3.70;;
63801;SDS011;49949;43.060;25.624;2022-07-23T12:19:59;54.33;;;5.57;;
63801;SDS011;49949;43.060;25.624;2022-07-23T12:22:34;14.55;;;4.45;;
63801;SDS011;49949;43.060;25.624;2022-07-23T12:25:20;16.15;;;3.55;;
63801;SDS011;49949;43.060;25.624;2022-07-23T12:27:57;21.60;;;3.97;;
63801;SDS011;49949;43.060;25.624;2022-07-23T12:30:27;14.85;;;3.70;;
63801;SDS011;49949;43.060;25.624;2022-07-23T12:32:55;13.68;;;3.92;;
63801;SDS011;49949;43.060;25.624;2022-07-23T12:35:22;15.07;;;4.82;;
63801;SDS011;49949;43.060;25.624;2022-07-23T12:37:59;11.52;;;3.53;;
63801;SDS011;49949;43.060;25.624;2022-07-23T12:40:29;8.45;;;2.97;;
63801;SDS011;49949;43.060;25.624;2022-07-23T12:43:07;11.43;;;4.00;;
63801;SDS011;49949;43.060;25.624;2022-07-23T12:45:45;12.68;;;3.50;;
63801;SDS011;49949;43.060;25.624;2022-07-23T12:48:31;12.85;;;3.45;;
63801;SDS011;49949;43.060;25.624;2022-07-23T12:56:06;27.50;;;4.07;;
63801;SDS011;49949;43.060;25.624;2022-07-23T12:58:53;12.30;;;3.30;;
63801;SDS011;49949;43.060;25.624;2022-07-23T13:01:29;15.38;;;4.28;;
63801;SDS011;49949;43.060;25.624;2022-07-23T13:06:29;9.07;;;3.75;;
63801;SDS011;49949;43.060;25.624;2022-07-23T13:09:02;20.55;;;4.50;;
63801;SDS011;49949;43.060;25.624;2022-07-23T13:11:29;9.95;;;3.72;;
63801;SDS011;49949;43.060;25.624;2022-07-23T13:13:55;12.57;;;3.53;;
63801;SDS011;49949;43.060;25.624;2022-07-23T13:16:21;12.00;;;3.97;;
63801;SDS011;49949;43.060;25.624;2022-07-23T13:18:47;13.60;;;4.32;;
63801;SDS011;49949;43.060;25.624;2022-07-23T13:21:13;8.50;;;3.50;;
63801;SDS011;49949;43.060;25.624;2022-07-23T13:23:38;12.57;;;3.38;;
63801;SDS011;49949;43.060;25.624;2022-07-23T13:26:04;14.48;;;3.90;;
63801;SDS011;49949;43.060;25.624;2022-07-23T13:28:30;15.38;;;3.50;;
63801;SDS011;49949;43.060;25.624;2022-07-23T13:30:56;8.65;;;3.58;;
63801;SDS011;49949;43.060;25.624;2022-07-23T13:33:23;8.80;;;4.03;;
63801;SDS011;49949;43.060;25.624;2022-07-23T13:35:50;14.48;;;3.47;;
63801;SDS011;49949;43.060;25.624;2022-07-23T13:38:17;17.52;;;3.92;;
63801;SDS011;49949;43.060;25.624;2022-07-23T13:40:44;14.70;;;3.60;;
63801;SDS011;49949;43.060;25.624;2022-07-23T13:43:12;16.77;;;4.10;;
63801;SDS011;49949;43.060;25.624;2022-07-23T13:45:39;14.82;;;3.85;;
63801;SDS011;49949;43.060;25.624;2022-07-23T13:48:07;11.40;;;3.70;;
63801;SDS011;49949;43.060;25.624;2022-07-23T13:50:35;15.90;;;3.70;;
63801;SDS011;49949;43.060;25.624;2022-07-23T13:53:04;17.08;;;3.63;;
63801;SDS011;49949;43.060;25.624;2022-07-23T13:55:32;8.85;;;3.30;;
63801;SDS011;49949;43.060;25.624;2022-07-23T13:57:58;16.67;;;3.38;;
63801;SDS011;49949;43.060;25.624;2022-07-23T14:00:25;18.20;;;3.58;;
63801;SDS011;49949;43.060;25.624;2022-07-23T14:02:51;30.67;;;4.28;;
63801;SDS011;49949;43.060;25.624;2022-07-23T14:05:18;9.55;;;3.58;;
63801;SDS011;49949;43.060;25.624;2022-07-23T14:07:43;10.07;;;3.72;;
63801;SDS011;49949;43.060;25.624;2022-07-23T14:10:12;13.88;;;3.80;;
63801;SDS011;49949;43.060;25.624;2022-07-23T14:12:38;14.27;;;4.28;;
63801;SDS011;49949;43.060;25.624;2022-07-23T14:15:05;14.30;;;5.32;;
63801;SDS011;49949;43.060;25.624;2022-07-23T14:17:33;21.75;;;5.72;;
63801;SDS011;49949;43.060;25.624;2022-07-23T14:19:59;12.88;;;4.18;;
63801;SDS011;49949;43.060;25.624;2022-07-23T14:22:25;12.48;;;4.82;;
63801;SDS011;49949;43.060;25.624;2022-07-23T14:24:51;11.25;;;3.25;;
63801;SDS011;49949;43.060;25.624;2022-07-23T14:27:16;11.25;;;3.13;;
63801;SDS011;49949;43.060;25.624;2022-07-23T14:29:42;7.78;;;3.13;;
63801;SDS011;49949;43.060;25.624;2022-07-23T14:32:08;9.00;;;2.95;;
63801;SDS011;49949;43.060;25.624;2022-07-23T14:34:34;12.70;;;4.00;;
63801;SDS011;49949;43.060;25.624;2022-07-23T14:37:00;8.38;;;4.13;;
63801;SDS011;49949;43.060;25.624;2022-07-23T14:39:27;12.75;;;3.55;;
63801;SDS011;49949;43.060;25.624;2022-07-23T14:41:53;7.40;;;3.28;;
63801;SDS011;49949;43.060;25.624;2022-07-23T14:44:19;7.97;;;3.17;;
63801;SDS011;49949;43.060;25.624;2022-07-23T14:46:45;11.68;;;3.20;;
63801;SDS011;49949;43.060;25.624;2022-07-23T14:49:10;6.57;;;3.55;;
63801;SDS011;49949;43.060;25.624;2022-07-23T14:51:36;11.93;;;4.80;;
63801;SDS011;49949;43.060;25.624;2022-07-23T14:54:02;17.08;;;4.20;;
63801;SDS011;49949;43.060;25.624;2022-07-23T14:56:29;14.45;;;4.15;;
63801;SDS011;49949;43.060;25.624;2022-07-23T14:58:55;13.98;;;3.70;;
63801;SDS011;49949;43.060;25.624;2022-07-23T15:01:23;7.15;;;3.55;;
63801;SDS011;49949;43.060;25.624;2022-07-23T15:03:49;13.70;;;4.45;;
63801;SDS011;49949;43.060;25.624;2022-07-23T15:06:15;11.93;;;3.70;;
63801;SDS011;49949;43.060;25.624;2022-07-23T15:08:42;17.48;;;3.80;;
63801;SDS011;49949;43.060;25.624;2022-07-23T15:11:08;16.92;;;3.28;;
63801;SDS011;49949;43.060;25.624;2022-07-23T15:13:34;18.52;;;4.70;;
63801;SDS011;49949;43.060;25.624;2022-07-23T15:16:01;12.45;;;4.20;;
63801;SDS011;49949;43.060;25.624;2022-07-23T15:18:27;9.80;;;3.30;;
63801;SDS011;49949;43.060;25.624;2022-07-23T15:20:53;6.13;;;2.90;;